createdAt,value
2023-03-14T00:01:24.761Z,10.60
2023-03-14T00:03:53.284Z,11.50
2023-03-14T00:06:22.029Z,10.20
2023-03-14T00:08:50.309Z,12.20
2023-03-14T00:11:20.486Z,12.60
2023-03-14T00:13:52.399Z,11.20
2023-03-14T00:16:26.447Z,11.90
2023-03-14T00:18:55.364Z,10.70
2023-03-14T00:21:23.554Z,12.30
2023-03-14T00:23:55.161Z,10.30
2023-03-14T00:26:23.439Z,11.00
2023-03-14T00:28:55.012Z,12.60
2023-03-14T00:33:53.544Z,9.30
2023-03-14T00:36:22.227Z,11.10
2023-03-14T00:38:54.120Z,10.80
2023-03-14T00:41:25.547Z,13.90
2023-03-14T00:43:55.224Z,10.50
2023-03-14T00:46:23.478Z,13.20
2023-03-14T00:48:52.465Z,13.10
2023-03-14T00:51:21.116Z,11.80
2023-03-14T00:53:49.378Z,13.60
2023-03-14T00:56:18.131Z,11.30
2023-03-14T00:58:46.880Z,11.10
2023-03-14T01:01:17.759Z,11.90
2023-03-14T01:03:46.945Z,14.90
2023-03-14T01:06:21.022Z,12.90
2023-03-14T01:08:50.039Z,14.60
2023-03-14T01:11:20.191Z,13.00
2023-03-14T01:13:49.471Z,10.80
2023-03-14T01:16:18.138Z,11.90
2023-03-14T01:18:47.020Z,11.50
2023-03-14T01:21:19.461Z,11.40
2023-03-14T01:23:48.443Z,11.10
2023-03-14T01:26:20.284Z,12.40
2023-03-14T01:28:49.607Z,12.60
2023-03-14T01:31:18.257Z,12.50
2023-03-14T01:33:49.160Z,12.20
2023-03-14T01:36:19.183Z,13.10
2023-03-14T01:38:51.534Z,12.10
2023-03-14T01:41:24.967Z,13.60
2023-03-14T01:43:53.869Z,13.40
2023-03-14T01:46:44.128Z,10.60
2023-03-14T01:49:25.091Z,12.30
2023-03-14T01:52:14.338Z,11.50
2023-03-14T01:54:53.267Z,11.10
2023-03-14T01:57:32.192Z,10.50
2023-03-14T02:00:06.438Z,8.40
2023-03-14T02:02:47.142Z,10.20
2023-03-14T02:05:24.087Z,10.70
2023-03-14T02:08:00.486Z,10.20
2023-03-14T02:10:44.661Z,12.10
2023-03-14T02:13:16.605Z,10.20
2023-03-14T02:16:04.273Z,11.10
2023-03-14T02:18:58.962Z,12.20
2023-03-14T02:21:56.603Z,10.10
2023-03-14T02:24:40.042Z,14.10
2023-03-14T02:27:31.190Z,10.70
2023-03-14T02:30:14.817Z,8.10
2023-03-14T02:32:46.574Z,8.60
2023-03-14T02:35:23.335Z,9.50
2023-03-14T02:37:58.980Z,9.00
2023-03-14T02:40:28.988Z,11.30
2023-03-14T02:42:59.020Z,8.90
2023-03-14T02:45:35.749Z,10.20
2023-03-14T02:48:10.509Z,11.10
2023-03-14T02:50:39.120Z,9.50
2023-03-14T02:53:09.017Z,10.60
2023-03-14T02:55:37.443Z,9.30
2023-03-14T02:58:11.192Z,10.30
2023-03-14T03:00:39.540Z,9.80
2023-03-14T03:03:09.379Z,10.50
2023-03-14T03:05:37.821Z,9.30
2023-03-14T03:08:06.449Z,8.50
2023-03-14T03:10:37.864Z,10.10
2023-03-14T03:13:07.788Z,11.20
2023-03-14T03:15:36.122Z,9.50
2023-03-14T03:18:05.298Z,10.00
2023-03-14T03:20:35.305Z,10.20
2023-03-14T03:23:07.626Z,11.10
2023-03-14T03:25:35.868Z,6.50
2023-03-14T03:28:08.975Z,8.40
2023-03-14T03:30:40.717Z,9.00
2023-03-14T03:33:09.093Z,9.40
2023-03-14T03:35:49.454Z,9.60
2023-03-14T03:38:21.308Z,10.90
2023-03-14T03:40:50.934Z,9.30
2023-03-14T03:43:19.441Z,9.90
2023-03-14T03:45:49.401Z,10.20
2023-03-14T03:48:17.883Z,11.10
2023-03-14T03:50:47.445Z,8.50
2023-03-14T03:53:32.805Z,9.20
2023-03-14T03:56:04.423Z,9.30
2023-03-14T03:58:33.077Z,11.10
2023-03-14T04:01:01.939Z,7.60
2023-03-14T04:03:30.965Z,10.00
2023-03-14T04:06:07.453Z,8.50
2023-03-14T04:08:38.886Z,7.70
2023-03-14T04:11:16.567Z,11.60
2023-03-14T04:14:06.749Z,9.10
2023-03-14T04:16:36.207Z,9.60
2023-03-14T04:19:13.586Z,12.40
2023-03-14T04:21:46.024Z,9.00
2023-03-14T04:24:14.813Z,10.00
2023-03-14T04:26:46.041Z,10.70
2023-03-14T04:29:14.604Z,9.80
2023-03-14T04:31:46.430Z,7.40
2023-03-14T04:34:15.865Z,12.00
2023-03-14T04:36:53.474Z,9.90
2023-03-14T04:39:27.502Z,9.20
2023-03-14T04:42:04.818Z,9.60
2023-03-14T04:44:33.124Z,11.30
2023-03-14T04:47:01.362Z,14.80
2023-03-14T04:49:34.245Z,10.80
2023-03-14T04:52:03.399Z,8.40
2023-03-14T04:54:33.645Z,14.50
2023-03-14T04:57:03.480Z,14.60
2023-03-14T04:59:34.883Z,13.60
2023-03-14T05:02:16.635Z,13.20
2023-03-14T05:04:58.318Z,10.70
2023-03-14T05:07:49.814Z,10.50
2023-03-14T05:10:56.218Z,9.60
2023-03-14T05:13:54.694Z,8.90
2023-03-14T05:16:53.070Z,8.30
2023-03-14T05:19:48.844Z,7.70
2023-03-14T05:22:52.196Z,7.80
2023-03-14T05:25:45.156Z,7.90
2023-03-14T05:28:19.111Z,9.40
2023-03-14T05:31:09.745Z,7.10
2023-03-14T05:33:49.254Z,8.80
2023-03-14T05:36:39.531Z,9.40
2023-03-14T05:39:28.118Z,10.10
2023-03-14T05:42:19.480Z,9.70
2023-03-14T05:45:00.636Z,6.80
2023-03-14T05:47:58.573Z,9.80
2023-03-14T05:50:43.687Z,9.50
2023-03-14T05:53:26.115Z,8.10
2023-03-14T05:56:14.565Z,8.70
2023-03-14T05:58:58.807Z,12.20
2023-03-14T06:01:36.045Z,7.70
2023-03-14T06:04:22.839Z,8.20
2023-03-14T06:06:55.117Z,8.70
2023-03-14T06:09:24.430Z,9.20
2023-03-14T06:12:00.395Z,8.40
2023-03-14T06:14:29.829Z,7.10
2023-03-14T06:17:00.157Z,9.00
2023-03-14T06:19:29.549Z,7.60
2023-03-14T06:21:58.218Z,7.20
2023-03-14T06:24:34.194Z,7.70
2023-03-14T06:27:22.476Z,7.60
2023-03-14T06:29:56.208Z,7.00
2023-03-14T06:32:25.794Z,7.90
2023-03-14T06:34:56.163Z,11.50
2023-03-14T06:37:29.225Z,8.70
2023-03-14T06:39:58.258Z,9.50
2023-03-14T06:42:47.867Z,7.00
2023-03-14T06:45:17.874Z,9.50
2023-03-14T06:47:52.422Z,8.30
2023-03-14T06:50:24.044Z,7.50
2023-03-14T06:52:54.662Z,9.50
2023-03-14T06:55:27.245Z,9.50
2023-03-14T06:57:56.161Z,10.30
2023-03-14T07:00:27.325Z,8.00
2023-03-14T07:02:57.368Z,8.30
2023-03-14T07:05:30.901Z,8.90
2023-03-14T07:08:00.357Z,12.00
2023-03-14T07:10:29.053Z,9.90
2023-03-14T07:12:58.475Z,8.70
2023-03-14T07:15:28.654Z,8.80
2023-03-14T07:18:00.018Z,8.00
2023-03-14T07:20:30.450Z,7.00
2023-03-14T07:23:01.299Z,8.50
2023-03-14T07:25:38.594Z,7.20
2023-03-14T07:28:09.299Z,10.00
2023-03-14T07:30:41.525Z,9.70
2023-03-14T07:33:25.992Z,10.50
2023-03-14T07:35:54.338Z,13.80
2023-03-14T07:38:23.093Z,9.90
2023-03-14T07:41:13.624Z,10.10
2023-03-14T07:43:48.003Z,9.60
2023-03-14T07:46:27.261Z,9.30
2023-03-14T07:49:00.882Z,9.50
2023-03-14T07:51:34.895Z,10.60
2023-03-14T07:54:03.375Z,9.60
2023-03-14T07:56:31.974Z,9.10
2023-03-14T07:59:05.306Z,8.30
2023-03-14T08:01:33.962Z,8.90
2023-03-14T08:04:06.181Z,9.00
2023-03-14T08:06:38.538Z,10.20
2023-03-14T08:09:10.222Z,7.70
2023-03-14T08:11:42.037Z,7.10
2023-03-14T08:14:13.806Z,8.30
2023-03-14T08:16:42.532Z,9.60
2023-03-14T08:19:11.056Z,9.60
2023-03-14T08:21:39.316Z,11.00
2023-03-14T08:24:14.293Z,11.60
2023-03-14T08:26:43.582Z,8.90
2023-03-14T08:29:14.966Z,8.10
2023-03-14T08:31:45.570Z,11.30
2023-03-14T08:34:15.121Z,10.60
2023-03-14T08:36:44.148Z,8.20
2023-03-14T08:39:12.686Z,12.80
2023-03-14T08:41:45.611Z,11.80
2023-03-14T08:44:14.216Z,8.60
2023-03-14T08:46:42.627Z,12.20
2023-03-14T08:49:12.188Z,11.80
2023-03-14T08:51:40.973Z,8.20
2023-03-14T08:54:12.308Z,9.00
2023-03-14T08:56:43.124Z,8.70
2023-03-14T08:59:12.238Z,7.80
2023-03-14T09:01:41.684Z,9.20
2023-03-14T09:04:10.759Z,7.90
2023-03-14T09:06:39.868Z,8.50
2023-03-14T09:09:10.366Z,9.50
2023-03-14T09:11:41.795Z,10.20
2023-03-14T09:14:10.624Z,9.60
2023-03-14T09:16:39.515Z,9.60
2023-03-14T09:19:07.998Z,8.90
2023-03-14T09:21:41.360Z,8.20
2023-03-14T09:24:09.759Z,7.50
2023-03-14T09:26:38.922Z,6.50
2023-03-14T09:29:08.063Z,8.70
2023-03-14T09:31:36.967Z,8.50
2023-03-14T09:34:06.674Z,7.80
2023-03-14T09:36:36.177Z,8.60
2023-03-14T09:39:05.598Z,7.00
2023-03-14T09:41:35.896Z,9.40
2023-03-14T09:44:20.547Z,7.50
2023-03-14T09:46:59.723Z,9.30
2023-03-14T09:49:40.252Z,9.00
2023-03-14T09:52:14.691Z,9.40
2023-03-14T09:54:52.385Z,8.50
2023-03-14T09:57:22.948Z,8.20
2023-03-14T09:59:52.541Z,9.60
2023-03-14T10:02:27.643Z,8.60
2023-03-14T10:04:55.926Z,10.00
2023-03-14T10:07:32.506Z,9.10
2023-03-14T10:10:01.252Z,7.50
2023-03-14T10:12:34.514Z,10.10
2023-03-14T10:15:05.839Z,9.00
2023-03-14T10:17:43.447Z,10.00
2023-03-14T10:20:35.842Z,21.60
2023-03-14T10:23:20.305Z,8.10
2023-03-14T10:26:18.234Z,7.40
2023-03-14T10:28:54.043Z,6.00
2023-03-14T10:31:28.706Z,10.70
2023-03-14T10:34:01.602Z,9.50
2023-03-14T10:36:32.301Z,6.20
2023-03-14T10:39:23.919Z,6.80
2023-03-14T10:42:05.651Z,7.40
2023-03-14T10:44:35.084Z,5.90
2023-03-14T10:47:05.703Z,8.60
2023-03-14T10:49:38.341Z,6.70
2023-03-14T10:52:09.964Z,9.40
2023-03-14T10:54:45.831Z,7.00
2023-03-14T10:57:14.058Z,5.70
2023-03-14T10:59:44.466Z,6.70
2023-03-14T11:02:19.243Z,4.60
2023-03-14T11:05:03.319Z,5.80
2023-03-14T11:07:44.597Z,5.60
2023-03-14T11:10:25.737Z,8.10
2023-03-14T11:13:22.043Z,5.20
2023-03-14T11:16:10.211Z,5.80
2023-03-14T11:19:16.257Z,5.60
2023-03-14T11:22:14.232Z,6.50
2023-03-14T11:24:46.445Z,6.10
2023-03-14T11:27:20.059Z,5.50
2023-03-14T11:29:52.083Z,7.00
2023-03-14T11:32:37.765Z,3.80
2023-03-14T11:35:16.211Z,4.10
2023-03-14T11:37:50.840Z,4.30
2023-03-14T11:40:26.546Z,4.80
2023-03-14T11:43:16.134Z,5.00
2023-03-14T11:45:44.585Z,6.90
2023-03-14T11:48:41.210Z,8.30
2023-03-14T11:51:33.094Z,4.60
2023-03-14T11:54:16.556Z,4.40
2023-03-14T11:56:55.410Z,2.50
2023-03-14T11:59:52.208Z,5.80
2023-03-14T12:02:41.275Z,3.20
2023-03-14T12:05:29.430Z,3.10
2023-03-14T12:08:10.238Z,5.20
2023-03-14T12:10:38.542Z,7.80
2023-03-14T12:13:11.969Z,4.90
2023-03-14T12:15:44.774Z,6.00
2023-03-14T12:18:28.163Z,6.40
2023-03-14T12:21:02.955Z,7.10
2023-03-14T12:23:43.621Z,3.00
2023-03-14T12:26:12.138Z,5.30
2023-03-14T12:28:58.510Z,3.20
2023-03-14T12:31:33.143Z,3.70
2023-03-14T12:34:10.255Z,4.30
2023-03-14T12:36:51.119Z,3.30
2023-03-14T12:39:45.136Z,4.10
2023-03-14T12:42:17.400Z,6.00
2023-03-14T12:44:50.544Z,3.60
2023-03-14T12:49:51.519Z,6.20
2023-03-14T12:52:21.654Z,7.50
2023-03-14T12:54:54.504Z,5.00
2023-03-14T12:57:33.838Z,3.80
2023-03-14T13:00:24.230Z,8.50
2023-03-14T13:02:53.209Z,4.60
2023-03-14T13:05:25.969Z,8.20
2023-03-14T13:10:28.249Z,6.90
2023-03-14T13:13:11.124Z,4.40
2023-03-14T13:15:45.039Z,8.30
2023-03-14T13:18:45.376Z,3.80
2023-03-14T13:21:20.883Z,8.30
2023-03-14T13:24:00.395Z,4.70
2023-03-14T13:26:56.191Z,6.50
2023-03-14T13:29:34.978Z,7.00
2023-03-14T13:32:17.824Z,7.50
2023-03-14T13:34:46.155Z,8.30
2023-03-14T13:37:21.390Z,4.70
2023-03-14T13:39:59.071Z,3.70
2023-03-14T13:42:28.713Z,6.50
2023-03-14T13:44:57.839Z,8.90
2023-03-14T13:47:26.556Z,8.90
2023-03-14T13:49:55.159Z,15.40
2023-03-14T13:52:36.196Z,25.90
2023-03-14T13:55:06.620Z,14.70
2023-03-14T13:57:49.305Z,7.80
2023-03-14T14:00:20.720Z,8.80
2023-03-14T14:02:52.930Z,6.30
2023-03-14T14:05:21.297Z,6.70
2023-03-14T14:07:50.430Z,16.70
2023-03-14T14:10:18.883Z,13.70
2023-03-14T14:12:52.455Z,11.20
2023-03-14T14:15:27.213Z,11.40
2023-03-14T14:17:57.899Z,16.00
2023-03-14T14:20:35.942Z,18.20
2023-03-14T14:23:26.874Z,20.90
2023-03-14T14:25:55.338Z,15.10
2023-03-14T14:28:29.006Z,15.20
2023-03-14T14:31:16.027Z,14.50
2023-03-14T14:33:45.866Z,7.60
2023-03-14T14:36:40.967Z,5.30
2023-03-14T14:39:18.445Z,11.70
2023-03-14T14:41:50.861Z,6.80
2023-03-14T14:44:39.402Z,9.90
2023-03-14T14:47:07.742Z,4.40
2023-03-14T14:49:37.113Z,7.40
2023-03-14T14:52:10.249Z,9.20
2023-03-14T14:54:41.130Z,8.10
2023-03-14T14:57:41.330Z,6.90
2023-03-14T15:00:20.280Z,11.80
2023-03-14T15:02:54.893Z,10.80
2023-03-14T15:05:24.998Z,12.20
2023-03-14T15:07:53.623Z,10.70
2023-03-14T15:10:26.188Z,9.00
2023-03-14T15:12:54.807Z,13.50
2023-03-14T15:15:23.218Z,15.20
2023-03-14T15:17:53.233Z,14.10
2023-03-14T15:20:24.770Z,8.80
2023-03-14T15:22:54.334Z,8.50
2023-03-14T15:25:47.402Z,11.20
2023-03-14T15:28:16.069Z,18.30
2023-03-14T15:30:44.418Z,14.10
2023-03-14T15:33:13.320Z,15.70
2023-03-14T15:35:42.742Z,12.80
2023-03-14T15:38:13.384Z,18.30
2023-03-14T15:40:48.626Z,18.90
2023-03-14T15:43:17.448Z,25.00
2023-03-14T15:45:47.812Z,24.70
2023-03-14T15:48:18.657Z,17.40
2023-03-14T15:50:50.308Z,19.40
2023-03-14T15:53:19.694Z,18.90
2023-03-14T15:55:48.600Z,18.30
2023-03-14T15:58:21.788Z,17.40
2023-03-14T16:00:50.784Z,11.00
2023-03-14T16:03:19.322Z,10.70
2023-03-14T16:05:47.785Z,11.50
2023-03-14T16:08:16.039Z,11.20
2023-03-14T16:10:46.315Z,14.20
2023-03-14T16:13:16.543Z,17.10
2023-03-14T16:15:56.930Z,8.50
2023-03-14T16:18:29.497Z,12.80
2023-03-14T16:21:02.624Z,10.20
2023-03-14T16:23:31.304Z,15.50
2023-03-14T16:26:04.479Z,13.70
2023-03-14T16:28:33.432Z,9.60
2023-03-14T16:31:06.166Z,15.90
2023-03-14T16:33:34.859Z,15.30
2023-03-14T16:36:14.111Z,10.80
2023-03-14T16:38:45.093Z,11.70
2023-03-14T16:41:15.789Z,15.50
2023-03-14T16:43:45.454Z,14.30
2023-03-14T16:46:17.646Z,11.10
2023-03-14T16:51:16.683Z,19.90
2023-03-14T16:53:46.104Z,20.20
2023-03-14T16:56:16.197Z,22.20
2023-03-14T16:58:46.876Z,29.10
2023-03-14T17:01:18.307Z,29.90
2023-03-14T17:06:19.441Z,15.80
2023-03-14T17:08:51.988Z,15.20
2023-03-14T17:11:20.474Z,11.60
2023-03-14T17:13:48.640Z,15.70
2023-03-14T17:16:17.209Z,13.20
2023-03-14T17:18:45.470Z,16.70
2023-03-14T17:21:17.311Z,18.10
2023-03-14T17:23:46.994Z,16.00
2023-03-14T17:26:15.791Z,16.30
2023-03-14T17:28:46.738Z,16.20
2023-03-14T17:31:17.240Z,17.80
2023-03-14T17:33:52.934Z,18.90
2023-03-14T17:36:25.218Z,16.00
2023-03-14T17:38:57.623Z,11.70
2023-03-14T17:41:27.514Z,11.80
2023-03-14T17:43:58.080Z,17.90
2023-03-14T17:46:27.929Z,14.90
2023-03-14T17:48:56.185Z,15.50
2023-03-14T17:51:28.999Z,14.30
2023-03-14T17:53:58.271Z,16.80
2023-03-14T17:56:26.536Z,16.80
2023-03-14T17:59:00.055Z,21.50
2023-03-14T18:01:28.711Z,22.80
2023-03-14T18:03:58.971Z,19.60
2023-03-14T18:06:30.311Z,22.60
2023-03-14T18:08:59.153Z,20.10
2023-03-14T18:11:28.053Z,30.30
2023-03-14T18:13:57.194Z,23.80
2023-03-14T18:16:25.509Z,24.00
2023-03-14T18:19:00.020Z,16.10
2023-03-14T18:21:31.485Z,18.00
2023-03-14T18:24:04.915Z,21.10
2023-03-14T18:26:33.375Z,19.00
2023-03-14T18:29:01.906Z,18.00
2023-03-14T18:31:31.656Z,18.50
2023-03-14T18:34:01.148Z,20.40
2023-03-14T18:36:29.829Z,20.70
2023-03-14T18:38:58.840Z,15.30
2023-03-14T18:41:27.542Z,17.30
2023-03-14T18:43:56.408Z,14.20
2023-03-14T18:46:24.780Z,15.10
2023-03-14T18:49:03.799Z,14.80
2023-03-14T18:51:34.059Z,21.30
2023-03-14T18:54:09.518Z,14.90
2023-03-14T18:56:42.013Z,17.10
2023-03-14T18:59:10.578Z,16.10
2023-03-14T19:01:39.870Z,16.10
2023-03-14T19:04:10.992Z,13.50
2023-03-14T19:06:44.223Z,16.20
2023-03-14T19:09:15.077Z,16.60
2023-03-14T19:11:43.842Z,15.30
2023-03-14T19:14:16.197Z,18.60
2023-03-14T19:16:48.098Z,17.00
2023-03-14T19:19:16.510Z,16.00
2023-03-14T19:21:47.242Z,19.40
2023-03-14T19:24:19.936Z,27.70
2023-03-14T19:26:50.664Z,30.20
2023-03-14T19:29:20.454Z,36.20
2023-03-14T19:31:48.843Z,34.70
2023-03-14T19:34:17.747Z,29.90
2023-03-14T19:36:46.131Z,30.30
2023-03-14T19:39:15.161Z,26.40
2023-03-14T19:41:44.009Z,23.00
2023-03-14T19:44:13.370Z,19.90
2023-03-14T19:46:42.535Z,15.70
2023-03-14T19:49:11.653Z,21.60
2023-03-14T19:51:40.076Z,19.50
2023-03-14T19:54:08.629Z,15.80
2023-03-14T19:56:38.582Z,17.40
2023-03-14T19:59:07.162Z,16.30
2023-03-14T20:01:36.878Z,15.10
2023-03-14T20:04:07.110Z,16.90
2023-03-14T20:06:35.799Z,13.50
2023-03-14T20:09:06.079Z,11.80
2023-03-14T20:11:43.890Z,12.00
2023-03-14T20:14:14.729Z,14.40
2023-03-14T20:16:44.554Z,12.80
2023-03-14T20:19:13.416Z,12.40
2023-03-14T20:21:43.102Z,13.50
2023-03-14T20:24:13.497Z,14.60
2023-03-14T20:26:41.822Z,16.40
2023-03-14T20:29:10.320Z,15.90
2023-03-14T20:31:40.284Z,14.90
2023-03-14T20:34:09.058Z,20.60
2023-03-14T20:36:38.438Z,19.40
2023-03-14T20:39:06.884Z,21.40
2023-03-14T20:41:42.096Z,20.70
2023-03-14T20:44:13.800Z,21.90
2023-03-14T20:46:43.808Z,23.10
2023-03-14T20:49:12.211Z,22.00
2023-03-14T20:51:41.694Z,32.70
2023-03-14T20:54:17.661Z,24.10
2023-03-14T20:56:46.492Z,23.30
2023-03-14T20:59:15.173Z,26.70
2023-03-14T21:01:47.951Z,21.70
2023-03-14T21:04:17.074Z,21.60
2023-03-14T21:06:47.156Z,20.50
2023-03-14T21:09:16.133Z,20.90
2023-03-14T21:11:47.387Z,20.80
2023-03-14T21:14:22.653Z,19.00
2023-03-14T21:16:55.772Z,19.00
2023-03-14T21:22:04.225Z,16.80
2023-03-14T21:24:34.610Z,16.90
2023-03-14T21:27:03.375Z,14.20
2023-03-14T21:29:31.913Z,20.20
2023-03-14T21:32:01.011Z,18.40
2023-03-14T21:34:30.937Z,15.30
2023-03-14T21:37:00.706Z,12.00
2023-03-14T21:39:30.313Z,15.20
2023-03-14T21:41:59.445Z,13.80
2023-03-14T21:44:28.311Z,12.50
2023-03-14T21:46:57.404Z,15.50
2023-03-14T21:49:28.244Z,11.60
2023-03-14T21:51:56.429Z,10.50
2023-03-14T21:54:24.928Z,10.40
2023-03-14T21:56:59.699Z,10.50
2023-03-14T21:59:28.364Z,8.40
2023-03-14T22:01:56.856Z,10.90
2023-03-14T22:04:26.278Z,9.00
2023-03-14T22:06:54.909Z,10.80
2023-03-14T22:09:23.647Z,10.40
2023-03-14T22:11:57.258Z,9.20
2023-03-14T22:14:26.174Z,11.50
2023-03-14T22:16:54.629Z,7.40
2023-03-14T22:19:22.777Z,10.50
2023-03-14T22:21:51.792Z,10.00
2023-03-14T22:24:20.379Z,10.40
2023-03-14T22:26:56.920Z,9.00
2023-03-14T22:29:25.859Z,12.40
2023-03-14T22:31:54.054Z,15.10
2023-03-14T22:34:22.659Z,14.60
2023-03-14T22:36:50.803Z,12.50
2023-03-14T22:39:19.697Z,12.60
2023-03-14T22:41:47.830Z,11.70
2023-03-14T22:44:20.440Z,13.50
2023-03-14T22:46:49.006Z,13.70
2023-03-14T22:49:17.593Z,14.90
2023-03-14T22:51:45.823Z,13.20
2023-03-14T22:54:14.028Z,12.70
2023-03-14T22:56:44.416Z,12.40
2023-03-14T22:59:15.089Z,13.40
2023-03-14T23:01:43.528Z,10.90
2023-03-14T23:04:11.763Z,13.00
2023-03-14T23:06:40.403Z,10.10
2023-03-14T23:09:12.181Z,11.30
2023-03-14T23:11:46.009Z,12.90
2023-03-14T23:14:14.496Z,14.90
2023-03-14T23:16:42.742Z,8.70
2023-03-14T23:19:11.338Z,10.50
2023-03-14T23:21:39.494Z,9.60
2023-03-14T23:24:08.388Z,11.50
2023-03-14T23:26:37.553Z,11.20
2023-03-14T23:29:06.655Z,11.40
2023-03-14T23:31:35.505Z,10.70
2023-03-14T23:34:03.685Z,9.90
2023-03-14T23:36:37.359Z,10.80
2023-03-14T23:39:07.018Z,11.10
2023-03-14T23:41:35.361Z,9.00
2023-03-14T23:44:07.396Z,12.00
2023-03-14T23:46:36.658Z,12.20
2023-03-14T23:49:05.126Z,9.20
2023-03-14T23:51:33.485Z,9.40
2023-03-14T23:54:01.714Z,11.70
2023-03-14T23:56:30.760Z,9.10
2023-03-14T23:58:58.922Z,8.70
